createdAt,value
2023-05-05T00:00:09.056Z,124.48
2023-05-05T00:01:08.847Z,125.83
2023-05-05T00:02:08.884Z,123.62
2023-05-05T00:03:08.886Z,123.29
2023-05-05T00:04:08.893Z,124.17
2023-05-05T00:05:08.840Z,123.80
2023-05-05T00:06:08.828Z,123.43
2023-05-05T00:07:08.837Z,124.78
2023-05-05T00:08:08.830Z,123.30
2023-05-05T00:09:08.853Z,124.39
2023-05-05T00:10:09.028Z,124.45
2023-05-05T00:11:08.823Z,124.09
2023-05-05T00:12:08.815Z,124.58
2023-05-05T00:13:08.905Z,124.64
2023-05-05T00:14:08.848Z,125.93
2023-05-05T00:15:08.844Z,124.24
2023-05-05T00:16:08.834Z,125.07
2023-05-05T00:17:08.870Z,124.32
2023-05-05T00:18:08.917Z,124.61
2023-05-05T00:19:09.076Z,123.95
2023-05-05T00:20:09.010Z,125.19
2023-05-05T00:21:08.828Z,124.87
2023-05-05T00:22:08.818Z,125.04
2023-05-05T00:23:08.830Z,125.45
2023-05-05T00:24:08.819Z,126.05
2023-05-05T00:25:08.780Z,125.27
2023-05-05T00:26:08.778Z,125.13
2023-05-05T00:27:08.756Z,123.10
2023-05-05T00:28:08.745Z,125.34
2023-05-05T00:29:08.733Z,125.03
2023-05-05T00:30:08.943Z,124.43
2023-05-05T00:31:08.801Z,121.44
2023-05-05T00:32:08.701Z,126.20
2023-05-05T00:33:08.680Z,124.62
2023-05-05T00:34:08.672Z,124.19
2023-05-05T00:35:08.649Z,124.72
2023-05-05T00:36:08.641Z,124.24
2023-05-05T00:37:08.635Z,122.58
2023-05-05T00:38:08.644Z,122.83
2023-05-05T00:39:08.602Z,125.66
2023-05-05T00:40:08.778Z,125.46
2023-05-05T00:41:08.563Z,123.48
2023-05-05T00:42:08.557Z,123.82
2023-05-05T00:43:08.611Z,122.45
2023-05-05T00:44:08.527Z,124.79
2023-05-05T00:45:08.513Z,124.25
2023-05-05T00:46:08.514Z,123.85
2023-05-05T00:47:08.493Z,123.61
2023-05-05T00:48:08.547Z,124.28
2023-05-05T00:49:08.506Z,124.09
2023-05-05T00:50:08.632Z,123.53
2023-05-05T00:51:08.490Z,123.45
2023-05-05T00:52:08.499Z,123.54
2023-05-05T00:53:08.490Z,123.79
2023-05-05T00:54:08.481Z,124.53
2023-05-05T00:55:08.480Z,125.40
2023-05-05T00:56:08.474Z,124.65
2023-05-05T00:57:08.477Z,124.17
2023-05-05T00:58:08.465Z,123.86
2023-05-05T00:59:08.477Z,123.44
2023-05-05T01:00:08.793Z,124.10
2023-05-05T01:01:08.515Z,125.53
2023-05-05T01:02:08.474Z,123.52
2023-05-05T01:03:08.586Z,123.66
2023-05-05T01:04:08.479Z,123.59
2023-05-05T01:05:08.504Z,123.52
2023-05-05T01:06:08.481Z,124.03
2023-05-05T01:07:08.461Z,124.93
2023-05-05T01:08:08.466Z,123.80
2023-05-05T01:09:08.476Z,125.14
2023-05-05T01:10:18.877Z,124.03
2023-05-05T01:11:09.446Z,124.21
2023-05-05T01:12:08.428Z,124.46
2023-05-05T01:13:08.516Z,124.58
2023-05-05T01:14:08.428Z,124.72
2023-05-05T01:15:08.383Z,123.03
2023-05-05T01:16:08.442Z,126.03
2023-05-05T01:17:08.364Z,125.01
2023-05-05T01:18:08.348Z,124.83
2023-05-05T01:19:08.336Z,123.65
2023-05-05T01:20:08.547Z,124.24
2023-05-05T01:21:09.288Z,124.45
2023-05-05T01:22:08.292Z,124.72
2023-05-05T01:23:08.277Z,125.10
2023-05-05T01:24:08.255Z,124.81
2023-05-05T01:25:08.241Z,124.35
2023-05-05T01:26:08.218Z,125.50
2023-05-05T01:27:08.216Z,124.91
2023-05-05T01:28:08.219Z,127.30
2023-05-05T01:29:08.182Z,125.07
2023-05-05T01:30:08.449Z,124.18
2023-05-05T01:31:08.168Z,125.77
2023-05-05T01:32:08.156Z,123.35
2023-05-05T01:33:08.146Z,124.98
2023-05-05T01:34:08.146Z,123.98
2023-05-05T01:35:08.122Z,124.36
2023-05-05T01:36:08.103Z,124.52
2023-05-05T01:37:08.091Z,124.04
2023-05-05T01:38:08.079Z,125.93
2023-05-05T01:39:08.046Z,125.86
2023-05-05T01:40:08.238Z,122.73
2023-05-05T01:41:08.009Z,124.65
2023-05-05T01:42:07.999Z,124.94
2023-05-05T01:43:07.984Z,125.09
2023-05-05T01:44:07.981Z,124.38
2023-05-05T01:45:07.956Z,125.70
2023-05-05T01:46:07.978Z,124.43
2023-05-05T01:47:07.919Z,123.80
2023-05-05T01:48:07.907Z,125.40
2023-05-05T01:49:07.887Z,124.54
2023-05-05T01:50:08.119Z,125.14
2023-05-05T01:51:07.873Z,125.48
2023-05-05T01:52:07.874Z,125.12
2023-05-05T01:53:07.868Z,124.74
2023-05-05T01:54:07.838Z,125.38
2023-05-05T01:55:07.823Z,124.56
2023-05-05T01:56:07.816Z,123.26
2023-05-05T01:57:07.833Z,123.95
2023-05-05T01:58:07.819Z,124.96
2023-05-05T01:59:07.971Z,124.95
2023-05-05T02:00:08.066Z,126.38
2023-05-05T02:01:07.920Z,125.74
2023-05-05T02:02:07.860Z,125.03
2023-05-05T02:03:07.984Z,125.86
2023-05-05T02:04:07.819Z,124.44
2023-05-05T02:05:07.818Z,124.33
2023-05-05T02:06:07.888Z,124.62
2023-05-05T02:07:07.827Z,126.18
2023-05-05T02:08:07.810Z,122.76
2023-05-05T02:09:07.816Z,124.70
2023-05-05T02:10:08.122Z,124.15
2023-05-05T02:11:07.824Z,124.11
2023-05-05T02:12:07.814Z,125.38
2023-05-05T02:13:07.954Z,125.77
2023-05-05T02:14:07.807Z,124.86
2023-05-05T02:15:07.813Z,124.54
2023-05-05T02:16:07.831Z,124.16
2023-05-05T02:17:07.794Z,123.71
2023-05-05T02:18:07.852Z,124.41
2023-05-05T02:19:07.807Z,124.15
2023-05-05T02:20:07.987Z,123.45
2023-05-05T02:21:07.786Z,123.51
2023-05-05T02:22:07.782Z,123.96
2023-05-05T02:23:07.784Z,124.76
2023-05-05T02:24:07.765Z,123.92
2023-05-05T02:25:07.772Z,124.20
2023-05-05T02:26:07.750Z,123.48
2023-05-05T02:27:07.742Z,124.16
2023-05-05T02:28:07.744Z,123.44
2023-05-05T02:29:07.810Z,126.61
2023-05-05T02:30:08.000Z,124.50
2023-05-05T02:31:07.747Z,125.07
2023-05-05T02:32:07.719Z,122.34
2023-05-05T02:33:07.724Z,125.61
2023-05-05T02:34:07.704Z,123.86
2023-05-05T02:35:07.709Z,124.84
2023-05-05T02:36:07.703Z,124.89
2023-05-05T02:37:07.725Z,123.89
2023-05-05T02:38:07.695Z,126.41
2023-05-05T02:39:07.689Z,125.44
2023-05-05T02:40:07.940Z,124.68
2023-05-05T02:41:07.691Z,125.97
2023-05-05T02:42:07.696Z,126.97
2023-05-05T02:43:07.776Z,125.90
2023-05-05T02:44:07.689Z,127.33
2023-05-05T02:45:07.689Z,127.64
2023-05-05T02:46:07.710Z,123.87
2023-05-05T02:47:07.685Z,124.99
2023-05-05T02:48:07.698Z,125.65
2023-05-05T02:49:07.688Z,127.30
2023-05-05T02:50:07.804Z,126.16
2023-05-05T02:51:07.677Z,126.29
2023-05-05T02:52:07.657Z,126.20
2023-05-05T02:53:07.642Z,126.81
2023-05-05T02:54:07.620Z,126.66
2023-05-05T02:55:07.619Z,126.47
2023-05-05T02:56:07.610Z,125.51
2023-05-05T02:57:07.594Z,124.03
2023-05-05T02:58:07.600Z,125.12
2023-05-05T02:59:07.567Z,125.58
2023-05-05T03:00:07.700Z,126.34
2023-05-05T03:01:07.578Z,124.12
2023-05-05T03:02:07.531Z,126.49
2023-05-05T03:03:07.586Z,124.12
2023-05-05T03:04:07.505Z,126.09
2023-05-05T03:05:07.511Z,124.24
2023-05-05T03:06:07.490Z,124.97
2023-05-05T03:07:07.472Z,124.74
2023-05-05T03:08:07.466Z,123.45
2023-05-05T03:09:07.450Z,125.65
2023-05-05T03:10:07.733Z,124.70
2023-05-05T03:11:07.443Z,124.90
2023-05-05T03:12:07.453Z,124.44
2023-05-05T03:13:07.483Z,123.08
2023-05-05T03:14:07.397Z,125.02
2023-05-05T03:15:07.394Z,124.18
2023-05-05T03:16:07.415Z,122.87
2023-05-05T03:17:07.382Z,123.13
2023-05-05T03:18:07.450Z,123.30
2023-05-05T03:19:07.357Z,124.12
2023-05-05T03:20:07.513Z,122.48
2023-05-05T03:21:07.344Z,125.57
2023-05-05T03:22:07.328Z,125.35
2023-05-05T03:23:07.318Z,125.00
2023-05-05T03:24:07.299Z,123.05
2023-05-05T03:25:07.288Z,123.47
2023-05-05T03:26:07.283Z,125.46
2023-05-05T03:27:07.280Z,124.68
2023-05-05T03:28:07.271Z,124.06
2023-05-05T03:29:07.288Z,123.68
2023-05-05T03:30:07.494Z,122.43
2023-05-05T03:31:07.246Z,121.89
2023-05-05T03:32:07.384Z,124.18
2023-05-05T03:33:07.266Z,124.33
2023-05-05T03:34:07.400Z,124.52
2023-05-05T03:35:07.201Z,123.60
2023-05-05T03:36:07.189Z,123.74
2023-05-05T03:37:07.214Z,123.51
2023-05-05T03:38:07.235Z,123.34
2023-05-05T03:39:07.161Z,121.58
2023-05-05T03:40:07.318Z,123.91
2023-05-05T03:41:07.162Z,121.38
2023-05-05T03:42:07.146Z,123.72
2023-05-05T03:43:07.120Z,122.40
2023-05-05T03:44:07.115Z,122.18
2023-05-05T03:45:07.115Z,120.61
2023-05-05T03:46:07.115Z,120.81
2023-05-05T03:47:07.097Z,121.31
2023-05-05T03:48:07.165Z,121.01
2023-05-05T03:49:07.062Z,121.71
2023-05-05T03:50:07.282Z,122.37
2023-05-05T03:51:07.055Z,122.84
2023-05-05T03:52:07.044Z,124.61
2023-05-05T03:53:07.047Z,123.21
2023-05-05T03:54:07.026Z,122.84
2023-05-05T03:55:07.022Z,123.07
2023-05-05T03:56:07.022Z,121.91
2023-05-05T03:57:07.003Z,121.26
2023-05-05T03:58:06.991Z,123.35
2023-05-05T03:59:06.975Z,121.57
2023-05-05T04:00:07.102Z,122.18
2023-05-05T04:01:06.952Z,121.36
2023-05-05T04:02:06.961Z,121.59
2023-05-05T04:03:07.119Z,122.08
2023-05-05T04:04:06.918Z,121.35
2023-05-05T04:05:06.896Z,121.21
2023-05-05T04:06:06.897Z,123.10
2023-05-05T04:07:06.887Z,123.83
2023-05-05T04:08:06.886Z,123.05
2023-05-05T04:09:06.865Z,121.35
2023-05-05T04:10:07.186Z,121.17
2023-05-05T04:11:06.876Z,121.39
2023-05-05T04:12:06.830Z,121.12
2023-05-05T04:13:06.842Z,123.80
2023-05-05T04:14:06.797Z,123.76
2023-05-05T04:15:06.788Z,120.88
2023-05-05T04:16:06.818Z,122.21
2023-05-05T04:17:06.770Z,122.94
2023-05-05T04:18:06.826Z,123.64
2023-05-05T04:19:06.782Z,124.88
2023-05-05T04:20:07.047Z,122.59
2023-05-05T04:21:06.789Z,124.42
2023-05-05T04:22:06.796Z,122.88
2023-05-05T04:23:06.806Z,122.07
2023-05-05T04:24:06.814Z,124.31
2023-05-05T04:25:06.821Z,124.44
2023-05-05T04:26:06.829Z,121.24
2023-05-05T04:27:06.827Z,123.93
2023-05-05T04:28:06.839Z,121.56
2023-05-05T04:29:06.841Z,122.72
2023-05-05T04:30:07.029Z,122.50
2023-05-05T04:31:06.916Z,120.73
2023-05-05T04:32:06.868Z,122.13
2023-05-05T04:33:06.887Z,121.45
2023-05-05T04:34:06.904Z,122.33
2023-05-05T04:35:06.932Z,123.43
2023-05-05T04:36:06.872Z,123.51
2023-05-05T04:37:06.880Z,121.39
2023-05-05T04:38:06.886Z,121.20
2023-05-05T04:39:07.173Z,123.38
2023-05-05T04:40:07.094Z,123.61
2023-05-05T04:41:06.908Z,122.18
2023-05-05T04:42:06.916Z,122.19
2023-05-05T04:43:06.928Z,124.11
2023-05-05T04:44:06.928Z,121.64
2023-05-05T04:45:06.953Z,124.17
2023-05-05T04:46:06.987Z,124.05
2023-05-05T04:47:06.965Z,120.84
2023-05-05T04:48:07.011Z,122.12
2023-05-05T04:49:06.990Z,123.97
2023-05-05T04:50:07.249Z,122.48
2023-05-05T04:51:06.989Z,123.24
2023-05-05T04:52:07.000Z,123.08
2023-05-05T04:53:07.020Z,120.51
2023-05-05T04:54:07.032Z,121.15
2023-05-05T04:55:07.026Z,122.50
2023-05-05T04:56:07.047Z,122.17
2023-05-05T04:57:07.044Z,120.46
2023-05-05T04:58:07.042Z,120.73
2023-05-05T04:59:07.025Z,120.95
2023-05-05T05:00:07.302Z,121.29
2023-05-05T05:01:06.995Z,122.49
2023-05-05T05:02:07.028Z,122.53
2023-05-05T05:03:07.064Z,120.98
2023-05-05T05:04:06.964Z,120.32
2023-05-05T05:05:06.978Z,120.83
2023-05-05T05:06:06.947Z,120.57
2023-05-05T05:07:06.934Z,121.48
2023-05-05T05:08:06.939Z,121.37
2023-05-05T05:09:06.935Z,121.25
2023-05-05T05:10:07.218Z,121.45
2023-05-05T05:11:06.911Z,121.25
2023-05-05T05:12:06.903Z,118.30
2023-05-05T05:13:06.912Z,119.27
2023-05-05T05:14:06.885Z,120.75
2023-05-05T05:15:06.875Z,119.93
2023-05-05T05:16:06.935Z,119.32
2023-05-05T05:17:06.893Z,119.82
2023-05-05T05:18:06.860Z,120.91
2023-05-05T05:19:06.837Z,117.99
2023-05-05T05:20:06.966Z,121.24
2023-05-05T05:21:06.824Z,121.87
2023-05-05T05:22:06.810Z,125.06
2023-05-05T05:23:06.812Z,125.67
2023-05-05T05:24:06.789Z,128.14
2023-05-05T05:25:06.972Z,129.73
2023-05-05T05:26:07.788Z,130.14
2023-05-05T05:27:09.678Z,131.69
2023-05-05T05:28:10.756Z,130.35
2023-05-05T05:29:06.739Z,130.37
2023-05-05T05:30:07.086Z,132.29
2023-05-05T05:31:06.748Z,134.78
2023-05-05T05:32:06.947Z,139.40
2023-05-05T05:33:06.759Z,143.96
2023-05-05T05:34:06.707Z,144.23
2023-05-05T05:35:06.680Z,143.67
2023-05-05T05:36:06.694Z,144.39
2023-05-05T05:37:06.678Z,143.11
2023-05-05T05:38:06.662Z,141.06
2023-05-05T05:39:07.472Z,144.04
2023-05-05T05:40:06.911Z,141.89
2023-05-05T05:41:06.616Z,144.76
2023-05-05T05:42:06.623Z,141.28
2023-05-05T05:43:06.642Z,142.79
2023-05-05T05:44:06.618Z,140.96
2023-05-05T05:45:06.587Z,140.69
2023-05-05T05:46:09.064Z,140.65
2023-05-05T05:47:07.393Z,145.32
2023-05-05T05:48:06.601Z,143.99
2023-05-05T05:49:06.567Z,142.95
2023-05-05T05:50:06.727Z,143.04
2023-05-05T05:51:06.534Z,141.36
2023-05-05T05:52:06.540Z,141.56
2023-05-05T05:53:06.503Z,140.43
2023-05-05T05:54:06.494Z,142.15
2023-05-05T05:55:06.484Z,143.00
2023-05-05T05:56:06.487Z,141.10
2023-05-05T05:57:06.453Z,142.08
2023-05-05T05:58:06.444Z,142.08
2023-05-05T05:59:06.430Z,142.38
2023-05-05T06:00:06.718Z,142.63
2023-05-05T06:01:06.990Z,142.33
2023-05-05T06:02:06.426Z,142.82
2023-05-05T06:03:06.528Z,142.19
2023-05-05T06:04:06.449Z,142.30
2023-05-05T06:05:06.349Z,142.65
2023-05-05T06:06:06.345Z,142.74
2023-05-05T06:07:06.345Z,142.22
2023-05-05T06:08:06.321Z,142.34
2023-05-05T06:09:06.293Z,139.30
2023-05-05T06:10:22.787Z,140.41
2023-05-05T06:11:06.988Z,140.67
2023-05-05T06:12:07.090Z,141.20
2023-05-05T06:13:06.300Z,141.75
2023-05-05T06:14:06.234Z,142.28
2023-05-05T06:15:06.189Z,142.49
2023-05-05T06:16:06.178Z,142.03
2023-05-05T06:17:06.161Z,143.31
2023-05-05T06:18:06.170Z,144.41
2023-05-05T06:19:06.134Z,143.56
2023-05-05T06:20:06.178Z,141.97
2023-05-05T06:21:06.107Z,142.94
2023-05-05T06:22:06.115Z,142.92
2023-05-05T06:23:06.163Z,142.54
2023-05-05T06:24:06.181Z,145.23
2023-05-05T06:25:06.260Z,144.66
2023-05-05T06:26:06.288Z,144.55
2023-05-05T06:27:06.324Z,144.06
2023-05-05T06:28:06.360Z,144.41
2023-05-05T06:29:06.399Z,144.29
2023-05-05T06:30:06.564Z,143.98
2023-05-05T06:31:06.517Z,148.29
2023-05-05T06:32:06.999Z,147.38
2023-05-05T06:33:06.598Z,154.72
2023-05-05T06:34:06.726Z,154.51
2023-05-05T06:35:06.681Z,162.85
2023-05-05T06:36:06.713Z,168.21
2023-05-05T06:37:07.662Z,168.59
2023-05-05T06:38:06.649Z,170.10
2023-05-05T06:39:06.630Z,173.19
2023-05-05T06:40:06.745Z,179.54
2023-05-05T06:41:06.569Z,193.25
2023-05-05T06:42:06.562Z,199.01
2023-05-05T06:43:06.516Z,199.50
2023-05-05T06:44:06.517Z,201.62
2023-05-05T06:45:06.488Z,206.22
2023-05-05T06:46:08.005Z,200.07
2023-05-05T06:47:06.434Z,204.46
2023-05-05T06:48:06.420Z,212.36
2023-05-05T06:49:06.373Z,225.60
2023-05-05T06:50:06.785Z,246.99
2023-05-05T06:51:12.206Z,248.07
2023-05-05T06:52:06.288Z,248.67
2023-05-05T06:53:06.256Z,250.33
2023-05-05T06:54:06.255Z,254.34
2023-05-05T06:55:06.194Z,261.26
2023-05-05T06:56:06.168Z,274.80
2023-05-05T06:57:06.143Z,258.10
2023-05-05T06:58:06.103Z,250.00
2023-05-05T06:59:06.083Z,250.00
2023-05-05T07:00:06.178Z,250.00
2023-05-05T07:01:06.074Z,250.00
2023-05-05T07:02:06.004Z,250.42
2023-05-05T07:03:06.048Z,251.37
2023-05-05T07:04:05.943Z,254.41
2023-05-05T07:05:05.949Z,258.38
2023-05-05T07:06:06.033Z,267.48
2023-05-05T07:07:05.870Z,255.05
2023-05-05T07:08:05.795Z,250.00
2023-05-05T07:09:05.811Z,250.00
2023-05-05T07:10:06.702Z,250.00
2023-05-05T07:11:05.694Z,249.35
2023-05-05T07:12:05.674Z,249.08
2023-05-05T07:13:05.704Z,247.99
2023-05-05T07:14:05.617Z,248.30
2023-05-05T07:15:19.224Z,248.45
2023-05-05T07:16:06.589Z,248.66
2023-05-05T07:17:05.494Z,251.11
2023-05-05T07:18:05.667Z,254.71
2023-05-05T07:19:05.468Z,256.07
2023-05-05T07:20:05.421Z,228.26
2023-05-05T07:21:05.368Z,228.39
2023-05-05T07:22:05.514Z,215.65
2023-05-05T07:23:05.289Z,175.32
2023-05-05T07:24:05.271Z,172.68
2023-05-05T07:25:05.261Z,174.53
2023-05-05T07:26:05.250Z,134.47
2023-05-05T07:27:05.237Z,112.29
2023-05-05T07:28:05.256Z,113.76
2023-05-05T07:29:05.358Z,116.02
2023-05-05T07:30:10.114Z,100.51
2023-05-05T07:31:05.279Z,100.60
2023-05-05T07:32:05.286Z,103.15
2023-05-05T07:33:05.296Z,99.44
2023-05-05T07:34:05.218Z,72.14
2023-05-05T07:35:05.203Z,53.86
2023-05-05T07:36:05.185Z,43.35
2023-05-05T07:37:05.191Z,72.66
2023-05-05T07:38:05.245Z,85.85
2023-05-05T07:39:05.164Z,82.19
2023-05-05T07:40:05.186Z,78.79
2023-05-05T07:41:05.120Z,77.57
2023-05-05T07:42:05.174Z,78.65
2023-05-05T07:43:05.252Z,76.13
2023-05-05T07:44:05.281Z,74.46
2023-05-05T07:45:05.298Z,77.45
2023-05-05T07:46:06.017Z,76.37
2023-05-05T07:47:05.360Z,76.37
2023-05-05T07:48:05.430Z,79.14
2023-05-05T07:49:05.416Z,78.20
2023-05-05T07:50:05.495Z,80.44
2023-05-05T07:51:05.483Z,69.76
2023-05-05T07:52:05.519Z,73.17
2023-05-05T07:53:13.690Z,77.36
2023-05-05T07:54:05.638Z,77.39
2023-05-05T07:55:05.482Z,78.19
2023-05-05T07:56:05.463Z,78.44
2023-05-05T07:57:05.450Z,80.22
2023-05-05T07:58:05.439Z,83.37
2023-05-05T07:59:05.399Z,78.79
2023-05-05T08:00:05.464Z,80.23
2023-05-05T08:01:05.356Z,75.71
2023-05-05T08:02:06.371Z,75.96
2023-05-05T08:03:05.643Z,76.52
2023-05-05T08:04:05.357Z,77.20
2023-05-05T08:05:05.397Z,80.04
2023-05-05T08:06:05.235Z,77.46
2023-05-05T08:07:05.276Z,76.10
2023-05-05T08:08:05.184Z,76.47
2023-05-05T08:09:05.173Z,76.33
2023-05-05T08:10:07.078Z,66.06
2023-05-05T08:11:05.106Z,46.12
2023-05-05T08:12:06.039Z,32.29
2023-05-05T08:13:05.123Z,21.44
2023-05-05T08:14:05.090Z,13.96
2023-05-05T08:15:05.174Z,27.91
2023-05-05T08:16:05.065Z,36.74
2023-05-05T08:17:05.036Z,41.39
2023-05-05T08:18:05.079Z,56.22
2023-05-05T08:19:07.907Z,70.19
2023-05-05T08:20:05.975Z,70.41
2023-05-05T08:21:05.549Z,65.91
2023-05-05T08:22:04.917Z,70.30
2023-05-05T08:23:04.890Z,74.58
2023-05-05T08:24:04.883Z,70.89
2023-05-05T08:25:04.866Z,29.12
2023-05-05T08:26:04.888Z,23.10
2023-05-05T08:27:04.825Z,38.53
2023-05-05T08:28:04.789Z,54.20
2023-05-05T08:29:04.778Z,64.77
2023-05-05T08:30:04.817Z,68.23
2023-05-05T08:31:04.796Z,52.79
2023-05-05T08:32:04.851Z,65.32
2023-05-05T08:33:04.844Z,68.04
2023-05-05T08:34:04.898Z,70.53
2023-05-05T08:35:04.950Z,72.12
2023-05-05T08:36:04.970Z,70.58
2023-05-05T08:37:05.008Z,74.66
2023-05-05T08:38:05.973Z,69.67
2023-05-05T08:39:04.949Z,72.50
2023-05-05T08:40:04.918Z,74.87
2023-05-05T08:41:04.896Z,75.06
2023-05-05T08:42:05.077Z,78.14
2023-05-05T08:43:04.964Z,79.59
2023-05-05T08:44:04.830Z,79.35
2023-05-05T08:45:04.877Z,83.25
2023-05-05T08:46:04.793Z,83.49
2023-05-05T08:47:04.834Z,85.23
2023-05-05T08:48:04.849Z,86.98
2023-05-05T08:49:04.709Z,88.99
2023-05-05T08:50:05.540Z,90.85
2023-05-05T08:51:05.575Z,90.99
2023-05-05T08:52:04.667Z,91.62
2023-05-05T08:53:04.652Z,92.51
2023-05-05T08:54:04.636Z,95.40
2023-05-05T08:55:04.606Z,97.52
2023-05-05T08:56:05.533Z,99.86
2023-05-05T08:57:04.702Z,100.98
2023-05-05T08:58:05.572Z,101.16
2023-05-05T08:59:04.472Z,101.56
2023-05-05T09:00:05.039Z,102.36
2023-05-05T09:01:04.443Z,103.16
2023-05-05T09:02:04.428Z,104.08
2023-05-05T09:03:04.517Z,104.98
2023-05-05T09:04:05.129Z,105.73
2023-05-05T09:05:04.290Z,104.25
2023-05-05T09:06:04.265Z,106.98
2023-05-05T09:07:04.248Z,104.79
2023-05-05T09:08:04.208Z,104.96
2023-05-05T09:09:04.172Z,105.10
2023-05-05T09:10:07.049Z,105.52
2023-05-05T09:11:04.122Z,106.61
2023-05-05T09:12:04.088Z,107.83
2023-05-05T09:13:04.118Z,109.45
2023-05-05T09:14:04.600Z,109.89
2023-05-05T09:15:04.006Z,102.94
2023-05-05T09:16:04.541Z,98.97
2023-05-05T09:17:04.691Z,107.40
2023-05-05T09:18:03.965Z,111.63
2023-05-05T09:19:03.899Z,113.78
2023-05-05T09:20:04.033Z,116.48
2023-05-05T09:21:03.832Z,120.39
2023-05-05T09:22:03.800Z,123.15
2023-05-05T09:23:08.562Z,126.15
2023-05-05T09:24:08.163Z,126.39
2023-05-05T09:25:04.779Z,126.51
2023-05-05T09:26:04.546Z,127.60
2023-05-05T09:27:03.675Z,129.38
2023-05-05T09:28:03.606Z,131.73
2023-05-05T09:29:03.582Z,136.58
2023-05-05T09:30:03.615Z,138.99
2023-05-05T09:31:03.501Z,140.68
2023-05-05T09:32:03.451Z,140.90
2023-05-05T09:33:03.460Z,141.78
2023-05-05T09:34:04.053Z,143.32
2023-05-05T09:35:03.347Z,145.97
2023-05-05T09:36:03.308Z,150.75
2023-05-05T09:37:03.274Z,150.71
2023-05-05T09:38:03.228Z,155.14
2023-05-05T09:39:03.189Z,157.20
2023-05-05T09:40:03.169Z,157.63
2023-05-05T09:41:04.053Z,159.62
2023-05-05T09:42:03.097Z,161.89
2023-05-05T09:43:03.075Z,163.58
2023-05-05T09:44:02.998Z,165.43
2023-05-05T09:45:02.982Z,167.26
2023-05-05T09:46:03.058Z,169.95
2023-05-05T09:48:02.977Z,173.98
2023-05-05T09:49:02.850Z,174.90
2023-05-05T09:50:02.815Z,175.26
2023-05-05T09:51:02.767Z,178.59
2023-05-05T09:52:02.734Z,178.76
2023-05-05T09:53:02.722Z,179.37
2023-05-05T09:54:02.669Z,180.39
2023-05-05T09:55:02.730Z,182.80
2023-05-05T09:56:02.625Z,187.08
2023-05-05T09:57:03.054Z,186.95
2023-05-05T09:58:02.529Z,189.16
2023-05-05T09:59:02.482Z,190.44
2023-05-05T10:00:03.081Z,192.17
2023-05-05T10:01:02.387Z,194.72
2023-05-05T10:02:04.199Z,196.17
2023-05-05T10:03:02.360Z,197.18
2023-05-05T10:04:02.278Z,196.58
2023-05-05T10:05:02.588Z,196.16
2023-05-05T10:06:02.245Z,196.23
2023-05-05T10:07:03.144Z,196.99
2023-05-05T10:08:04.122Z,191.85
2023-05-05T10:09:02.113Z,190.73
2023-05-05T10:10:02.075Z,190.36
2023-05-05T10:11:02.048Z,188.87
2023-05-05T10:12:02.042Z,189.66
2023-05-05T10:13:01.999Z,188.84
2023-05-05T10:14:02.982Z,188.24
2023-05-05T10:15:01.920Z,186.59
2023-05-05T10:16:01.911Z,187.21
2023-05-05T10:17:01.833Z,187.36
2023-05-05T10:18:07.707Z,187.43
2023-05-05T10:19:02.820Z,187.36
2023-05-05T10:20:01.780Z,187.87
2023-05-05T10:21:01.829Z,187.50
2023-05-05T10:22:01.797Z,187.91
2023-05-05T10:23:01.728Z,185.87
2023-05-05T10:24:01.667Z,185.88
2023-05-05T10:25:01.700Z,186.32
2023-05-05T10:26:01.643Z,186.10
2023-05-05T10:27:01.650Z,184.51
2023-05-05T10:28:01.586Z,185.43
2023-05-05T10:29:01.576Z,184.50
2023-05-05T10:30:01.579Z,184.35
2023-05-05T10:31:02.141Z,183.40
2023-05-05T10:32:01.799Z,183.86
2023-05-05T10:33:17.388Z,184.94
2023-05-05T10:34:02.648Z,185.02
2023-05-05T10:35:01.463Z,184.72
2023-05-05T10:36:01.572Z,184.24
2023-05-05T10:37:01.425Z,182.91
2023-05-05T10:38:01.428Z,182.98
2023-05-05T10:39:01.397Z,181.29
2023-05-05T10:40:01.379Z,181.73
2023-05-05T10:41:01.372Z,180.56
2023-05-05T10:42:01.340Z,181.10
2023-05-05T10:43:01.321Z,181.20
2023-05-05T10:44:03.758Z,180.94
2023-05-05T10:45:01.359Z,182.64
2023-05-05T10:46:01.347Z,180.17
2023-05-05T10:47:01.275Z,180.12
2023-05-05T10:48:01.420Z,179.09
2023-05-05T10:49:02.270Z,179.35
2023-05-05T10:50:01.382Z,179.43
2023-05-05T10:51:01.213Z,179.78
2023-05-05T10:52:01.206Z,179.77
2023-05-05T10:53:01.192Z,180.23
2023-05-05T10:54:01.208Z,179.07
2023-05-05T10:55:01.170Z,178.89
2023-05-05T10:56:01.145Z,178.70
2023-05-05T10:57:01.134Z,177.89
2023-05-05T10:58:01.135Z,176.69
2023-05-05T10:59:01.119Z,176.66
2023-05-05T11:00:01.136Z,176.98
2023-05-05T11:01:01.078Z,177.73
2023-05-05T11:02:01.073Z,175.66
2023-05-05T11:03:01.056Z,176.16
2023-05-05T11:04:01.072Z,174.51
2023-05-05T11:05:00.962Z,175.73
2023-05-05T11:06:01.044Z,174.42
2023-05-05T11:07:01.013Z,173.99
2023-05-05T11:08:00.981Z,174.42
2023-05-05T11:09:00.888Z,173.78
2023-05-05T11:10:00.851Z,174.98
2023-05-05T11:11:01.855Z,175.09
2023-05-05T11:12:00.804Z,175.39
2023-05-05T11:13:00.815Z,175.05
2023-05-05T11:14:00.765Z,175.40
2023-05-05T11:15:01.162Z,174.92
2023-05-05T11:16:00.765Z,173.27
2023-05-05T11:17:00.865Z,173.19
2023-05-05T11:18:01.909Z,172.14
2023-05-05T11:19:01.732Z,173.40
2023-05-05T11:20:01.529Z,171.55
2023-05-05T11:21:01.557Z,172.28
2023-05-05T11:22:01.129Z,170.92
2023-05-05T11:23:00.822Z,170.32
2023-05-05T11:24:00.891Z,170.49
2023-05-05T11:25:00.852Z,170.66
2023-05-05T11:26:00.849Z,171.14
2023-05-05T11:27:00.934Z,170.49
2023-05-05T11:28:00.878Z,169.73
2023-05-05T11:29:01.049Z,170.14
2023-05-05T11:30:01.108Z,168.77
2023-05-05T11:31:00.980Z,170.42
2023-05-05T11:32:00.931Z,169.62
2023-05-05T11:33:01.053Z,169.69
2023-05-05T11:34:00.953Z,168.42
2023-05-05T11:35:00.977Z,167.67
2023-05-05T11:36:01.799Z,167.88
2023-05-05T11:37:00.994Z,167.70
2023-05-05T11:38:01.139Z,168.49
2023-05-05T11:39:01.056Z,166.82
2023-05-05T11:40:01.054Z,167.55
2023-05-05T11:41:01.071Z,166.15
2023-05-05T11:42:03.797Z,166.65
2023-05-05T11:43:02.036Z,166.80
2023-05-05T11:44:01.038Z,166.79
2023-05-05T11:45:01.144Z,166.03
2023-05-05T11:46:01.099Z,166.08
2023-05-05T11:47:00.984Z,165.65
2023-05-05T11:48:01.644Z,166.48
2023-05-05T11:49:00.935Z,164.67
2023-05-05T11:50:00.941Z,163.41
2023-05-05T11:51:00.902Z,165.74
2023-05-05T11:52:00.958Z,164.61
2023-05-05T11:53:00.870Z,163.68
2023-05-05T11:54:01.078Z,165.03
2023-05-05T11:55:02.304Z,164.35
2023-05-05T11:56:00.839Z,163.99
2023-05-05T11:57:00.795Z,163.56
2023-05-05T11:58:00.770Z,162.83
2023-05-05T11:59:00.756Z,162.53
2023-05-05T12:00:01.260Z,163.25
2023-05-05T12:01:00.756Z,162.32
2023-05-05T12:02:00.731Z,163.23
2023-05-05T12:03:00.912Z,161.21
2023-05-05T12:04:00.935Z,161.69
2023-05-05T12:05:00.808Z,162.85
2023-05-05T12:06:00.768Z,159.99
2023-05-05T12:07:00.781Z,160.49
2023-05-05T12:08:00.811Z,160.68
2023-05-05T12:09:00.795Z,160.40
2023-05-05T12:10:00.873Z,161.87
2023-05-05T12:11:00.801Z,161.13
2023-05-05T12:12:00.808Z,159.43
2023-05-05T12:13:00.859Z,159.60
2023-05-05T12:14:00.818Z,161.59
2023-05-05T12:15:01.107Z,158.31
2023-05-05T12:16:00.884Z,159.27
2023-05-05T12:17:00.839Z,158.51
2023-05-05T12:18:03.275Z,158.62
2023-05-05T12:19:00.796Z,159.10
2023-05-05T12:20:00.800Z,158.98
2023-05-05T12:21:00.753Z,159.25
2023-05-05T12:22:00.736Z,158.87
2023-05-05T12:23:00.701Z,157.54
2023-05-05T12:24:00.699Z,157.84
2023-05-05T12:25:00.668Z,158.32
2023-05-05T12:26:00.644Z,156.77
2023-05-05T12:27:00.613Z,156.27
2023-05-05T12:28:00.629Z,157.22
2023-05-05T12:29:00.576Z,157.97
2023-05-05T12:30:00.558Z,156.99
2023-05-05T12:31:00.570Z,157.15
2023-05-05T12:32:00.576Z,157.44